Time;durP1;ratioP1;P1;durP2;ratioP2;P2;SDS_P1;SDS_P2;PMS_P1;PMS_P2;Temp;Humidity;BMP_temperature;BMP_pressure;BME280_temperature;BME280_humidity;BME280_pressure;Samples;Min_cycle;Max_cycle;Signal;HPM_P1;HPM_P2
2021/10/13 00:11:23;;;;;;;3.35;3.05;;;;;;;8.45;60.14;99851.78;4818774;29;20063;-81
2021/10/13 00:13:50;;;;;;;3.10;2.90;;;;;;;8.48;60.32;99841.25;4822667;29;20065;-79
2021/10/13 00:16:16;;;;;;;7.05;3.95;;;;;;;8.37;60.74;99833.94;4822936;29;20054;-79
2021/10/13 00:18:42;;;;;;;4.28;3.90;;;;;;;8.42;60.94;99841.53;4821310;29;20054;-79
2021/10/13 00:21:08;;;;;;;8.45;4.00;;;;;;;8.39;60.89;99834.72;4822512;29;20123;-79
2021/10/13 00:23:34;;;;;;;4.57;4.28;;;;;;;8.47;60.36;99835.22;4821245;29;20619;-79
2021/10/13 00:26:00;;;;;;;5.00;4.70;;;;;;;8.47;60.48;99823.97;4833259;29;20050;-78
2021/10/13 00:28:26;;;;;;;3.50;3.20;;;;;;;8.50;60.59;99834.22;4804216;29;20153;-78
2021/10/13 00:30:52;;;;;;;6.45;3.63;;;;;;;8.70;59.63;99821.13;4804380;29;20063;-80
2021/10/13 00:33:18;;;;;;;6.68;3.65;;;;;;;8.63;59.90;99827.53;4804386;29;20119;-79
2021/10/13 00:35:44;;;;;;;5.57;3.78;;;;;;;8.67;59.54;99822.09;4816397;29;20059;-80
2021/10/13 00:38:10;;;;;;;4.00;3.70;;;;;;;8.70;59.14;99815.91;4822347;29;20133;-79
2021/10/13 00:40:36;;;;;;;2.88;2.70;;;;;;;8.60;59.97;99820.72;4822255;29;20065;-81
2021/10/13 00:43:02;;;;;;;6.13;5.03;;;;;;;8.71;59.68;99821.03;4822446;29;20038;-80
2021/10/13 00:45:28;;;;;;;7.43;4.18;;;;;;;8.69;59.26;99820.28;4805788;29;20149;-81
2021/10/13 00:47:54;;;;;;;5.25;4.95;;;;;;;8.64;59.69;99826.59;4802969;29;20448;-79
2021/10/13 00:50:21;;;;;;;2.92;2.72;;;;;;;8.59;60.20;99815.56;4804256;29;20084;-80
2021/10/13 00:52:47;;;;;;;4.25;4.03;;;;;;;8.63;59.78;99820.56;4802830;29;20857;-81
2021/10/13 00:55:23;;;;;;;5.63;4.47;;;;;;;8.62;60.17;99811.06;4804180;29;20058;-82
2021/10/13 00:57:50;;;;;;;12.98;6.13;;;;;;;8.63;60.15;99810.16;4802980;29;20127;-82
2021/10/13 01:00:16;;;;;;;6.95;4.40;;;;;;;8.64;60.25;99800.56;4804150;29;20084;-81
2021/10/13 01:03:10;;;;;;;2.63;2.50;;;;;;;8.62;60.20;99794.59;4802337;29;20058;-82
2021/10/13 01:05:55;;;;;;;6.57;4.32;;;;;;;8.51;60.79;99805.53;4803880;29;20101;-81
2021/10/13 01:08:41;;;;;;;19.17;5.78;;;;;;;8.41;61.31;99793.03;4803793;29;20625;-82
2021/10/13 01:11:19;;;;;;;7.78;3.97;;;;;;;8.38;61.45;99794.84;4789608;29;20070;-81
2021/10/13 01:14:03;;;;;;;3.53;3.33;;;;;;;8.24;62.55;99797.25;4820067;29;20078;-82
2021/10/13 01:16:40;;;;;;;4.75;4.45;;;;;;;8.21;62.64;99802.56;4821745;29;20058;-80
2021/10/13 01:19:13;;;;;;;5.97;3.47;;;;;;;8.19;62.55;99804.38;4820563;29;20054;-81
2021/10/13 01:21:47;;;;;;;4.40;3.97;;;;;;;8.24;62.43;99801.59;4805562;29;20525;-80
2021/10/13 01:24:16;;;;;;;5.40;3.72;;;;;;;8.23;62.46;99807.69;4820606;29;20165;-82
2021/10/13 01:27:03;;;;;;;4.30;3.97;;;;;;;8.20;62.80;99802.63;4821430;29;20050;-80
2021/10/13 01:29:30;;;;;;;6.70;3.80;;;;;;;8.22;62.82;99793.84;4819940;29;20058;-81
2021/10/13 01:32:03;;;;;;;12.23;4.57;;;;;;;8.23;62.33;99795.53;4805029;29;20057;-81
2021/10/13 01:34:34;;;;;;;9.20;3.75;;;;;;;8.27;62.42;99802.28;4820292;29;20145;-81
2021/10/13 01:37:03;;;;;;;5.32;4.95;;;;;;;8.33;61.86;99799.44;4835294;29;20058;-81
2021/10/13 01:39:29;;;;;;;1.58;1.58;;;;;;;8.36;61.99;99799.28;4822566;29;20546;-81
2021/10/13 01:41:56;;;;;;;10.80;2.08;;;;;;;8.29;62.67;99803.09;4821124;29;20054;-83
2021/10/13 01:44:22;;;;;;;3.72;3.45;;;;;;;8.28;62.50;99804.00;4820591;29;20077;-83
2021/10/13 01:46:48;;;;;;;2.60;2.40;;;;;;;8.24;62.42;99801.59;4820434;29;20075;-82
2021/10/13 01:49:14;;;;;;;1.85;1.75;;;;;;;8.24;62.48;99797.25;4820437;29;20137;-81
2021/10/13 01:51:43;;;;;;;4.90;3.28;;;;;;;8.28;62.51;99795.34;4805272;29;20054;-84
2021/10/13 01:54:09;;;;;;;3.30;2.95;;;;;;;8.29;62.05;99799.63;4805203;29;20059;-82
2021/10/13 01:56:35;;;;;;;4.22;3.90;;;;;;;8.29;62.65;99794.44;4790032;29;20061;-82
2021/10/13 01:59:06;;;;;;;4.85;4.45;;;;;;;8.26;62.94;99795.41;4820007;29;20054;-83
2021/10/13 02:01:32;;;;;;;7.63;3.90;;;;;;;8.24;62.69;99797.25;4820073;29;20070;-82
2021/10/13 02:04:01;;;;;;;6.45;5.03;;;;;;;8.23;63.12;99803.34;4805182;29;20051;-80
2021/10/13 02:06:28;;;;;;;4.70;4.32;;;;;;;8.21;62.97;99797.34;4817498;29;20058;-80
2021/10/13 02:08:54;;;;;;;8.20;3.47;;;;;;;8.18;62.83;99784.50;4804844;29;20115;-83
2021/10/13 02:11:25;;;;;;;6.03;4.10;;;;;;;8.26;62.73;99785.00;4804954;29;20082;-82
2021/10/13 02:13:51;;;;;;;3.85;3.53;;;;;;;8.22;62.85;99793.84;4773292;29;20120;-83
2021/10/13 02:16:17;;;;;;;3.17;2.53;;;;;;;8.20;63.06;99787.03;4817247;29;20047;-83
2021/10/13 02:18:43;;;;;;;2.92;2.72;;;;;;;8.24;62.78;99786.84;4801571;29;20062;-82
2021/10/13 02:21:09;;;;;;;10.40;6.03;;;;;;;8.25;63.02;99783.31;4787835;29;20415;-81
2021/10/13 02:23:36;;;;;;;3.72;3.42;;;;;;;8.27;62.75;99789.28;4816067;29;20051;-81
2021/10/13 02:26:05;;;;;;;6.65;3.60;;;;;;;8.28;62.68;99791.00;4831552;29;20050;-80
2021/10/13 02:28:33;;;;;;;2.80;2.60;;;;;;;8.23;63.03;99785.13;4807280;29;20104;-81
2021/10/13 02:30:59;;;;;;;5.55;5.05;;;;;;;8.28;62.90;99782.34;4802409;29;20054;-80
2021/10/13 02:33:26;;;;;;;6.25;5.70;;;;;;;8.32;62.17;99794.28;4818374;29;20062;-83
2021/10/13 02:35:52;;;;;;;3.95;3.67;;;;;;;8.32;62.12;99787.34;4806857;29;20074;-82
2021/10/13 02:38:18;;;;;;;5.25;4.75;;;;;;;8.31;63.06;99801.25;4806752;29;20054;-82
2021/10/13 02:40:43;;;;;;;5.40;3.38;;;;;;;8.30;62.73;99796.13;4807196;29;20083;-82
2021/10/13 02:43:09;;;;;;;3.22;3.03;;;;;;;8.27;62.77;99799.69;4824467;29;20465;-81
2021/10/13 02:45:37;;;;;;;3.00;2.83;;;;;;;8.25;62.92;99793.69;4824387;29;20104;-80
2021/10/13 02:48:25;;;;;;;3.58;3.38;;;;;;;8.27;63.32;99807.50;4822872;29;20058;-80
2021/10/13 02:51:00;;;;;;;3.42;3.05;;;;;;;8.31;62.95;99801.25;4822650;29;20081;-80
2021/10/13 02:53:35;;;;;;;2.92;2.80;;;;;;;8.32;62.48;99789.94;4822749;29;20153;-79
2021/10/13 02:56:05;;;;;;;4.50;3.08;;;;;;;8.31;62.73;99793.44;4807872;29;20556;-79
2021/10/13 02:58:35;;;;;;;6.85;4.88;;;;;;;8.32;62.51;99784.75;4822539;29;20517;-80
2021/10/13 03:01:01;;;;;;;2.22;2.15;;;;;;;8.37;62.95;99787.13;4822801;29;20164;-80
2021/10/13 03:04:00;;;;;;;7.10;4.90;;;;;;;8.33;63.00;99789.03;4807895;29;20054;-80
2021/10/13 03:06:55;;;;;;;3.72;3.38;;;;;;;8.31;62.97;99783.03;4815828;29;20544;-78
2021/10/13 03:09:21;;;;;;;2.92;2.67;;;;;;;8.32;63.01;99782.13;4820768;29;20081;-79
2021/10/13 03:11:49;;;;;;;4.78;4.22;;;;;;;8.34;62.68;99777.69;4807741;29;20054;-80
2021/10/13 03:14:19;;;;;;;3.00;2.67;;;;;;;8.30;63.46;99780.53;4807388;29;20086;-78
2021/10/13 03:16:45;;;;;;;3.28;3.17;;;;;;;8.31;63.03;99783.03;4807250;29;20050;-79
2021/10/13 03:19:11;;;;;;;5.57;3.47;;;;;;;8.29;63.10;99777.09;4823708;29;20054;-81
2021/10/13 03:21:40;;;;;;;9.02;4.97;;;;;;;8.34;63.08;99771.69;4807182;29;20061;-79
2021/10/13 03:24:06;;;;;;;3.83;3.53;;;;;;;8.35;63.28;99783.75;4807588;29;20525;-79
2021/10/13 03:26:32;;;;;;;4.47;3.42;;;;;;;8.33;63.01;99776.03;4807291;29;20514;-78
2021/10/13 03:28:59;;;;;;;5.40;4.38;;;;;;;8.31;63.13;99777.84;4792435;29;20285;-79
2021/10/13 03:31:25;;;;;;;3.95;3.70;;;;;;;8.24;64.11;99771.25;4792115;29;20058;-79
2021/10/13 03:33:53;;;;;;;2.85;2.55;;;;;;;8.21;64.24;99776.56;4823031;29;20062;-79
2021/10/13 03:36:20;;;;;;;4.18;3.88;;;;;;;8.11;64.55;99770.13;4823206;29;20054;-78
2021/10/13 03:38:46;;;;;;;16.92;3.17;;;;;;;8.00;64.57;99754.16;4807248;29;20051;-79
2021/10/13 03:41:12;;;;;;;5.07;4.68;;;;;;;8.07;64.52;99762.50;4823450;29;20204;-79
2021/10/13 03:43:48;;;;;;;3.85;3.53;;;;;;;8.02;65.21;99757.53;4823040;29;20062;-79
2021/10/13 03:46:19;;;;;;;8.68;3.10;;;;;;;8.03;64.97;99754.00;4823449;29;20058;-80
2021/10/13 03:48:46;;;;;;;4.22;3.95;;;;;;;7.98;65.10;99750.78;4791893;29;20528;-79
2021/10/13 03:51:12;;;;;;;3.97;3.67;;;;;;;7.95;65.18;99748.31;4792439;29;20050;-83
2021/10/13 03:53:38;;;;;;;4.40;4.18;;;;;;;7.93;65.28;99739.75;4792098;29;20081;-81
2021/10/13 03:56:04;;;;;;;5.55;4.05;;;;;;;7.92;65.14;99742.44;4807185;29;20050;-82
2021/10/13 03:58:30;;;;;;;7.75;4.35;;;;;;;7.88;65.33;99728.75;4824197;29;20050;-82
2021/10/13 04:00:56;;;;;;;9.25;3.72;;;;;;;7.97;64.91;99741.31;4807507;29;20133;-82
2021/10/13 04:03:21;;;;;;;3.25;3.05;;;;;;;7.94;65.55;99746.66;4825497;29;20054;-81
2021/10/13 04:05:48;;;;;;;7.55;3.53;;;;;;;7.82;65.11;99732.44;4823592;29;20054;-84
2021/10/13 04:08:13;;;;;;;5.70;5.20;;;;;;;7.99;65.13;99759.41;4823804;29;20058;-82
2021/10/13 04:10:39;;;;;;;2.75;2.58;;;;;;;8.00;64.93;99755.91;4815065;29;20058;-81
2021/10/13 04:13:06;;;;;;;2.40;2.30;;;;;;;8.06;64.63;99761.66;4821944;29;20062;-81
2021/10/13 04:15:32;;;;;;;5.65;4.38;;;;;;;8.10;64.42;99762.38;4822950;29;20043;-80
2021/10/13 04:17:58;;;;;;;4.07;3.70;;;;;;;8.04;64.51;99762.66;4822865;29;20088;-82
2021/10/13 04:20:24;;;;;;;4.70;4.38;;;;;;;8.09;65.29;99769.31;4822156;29;20148;-80
2021/10/13 04:22:50;;;;;;;3.80;3.45;;;;;;;8.06;65.78;99777.28;4822784;29;20601;-81
2021/10/13 04:25:16;;;;;;;2.70;2.50;;;;;;;8.04;65.45;99773.06;4822950;29;20054;-82
2021/10/13 04:27:41;;;;;;;5.78;4.30;;;;;;;8.02;66.02;99778.31;4823002;29;20529;-81
2021/10/13 04:30:09;;;;;;;2.35;2.15;;;;;;;8.02;65.70;99775.72;4821583;29;20114;-80
2021/10/13 04:32:35;;;;;;;2.67;2.47;;;;;;;7.97;66.13;99769.03;4822423;29;20430;-79
2021/10/13 04:35:01;;;;;;;9.43;3.83;;;;;;;8.00;66.29;99767.16;4822522;29;20046;-82
2021/10/13 04:37:26;;;;;;;3.08;2.88;;;;;;;8.04;66.00;99767.84;4823558;29;20087;-82
2021/10/13 04:39:53;;;;;;;4.00;3.75;;;;;;;8.03;66.51;99772.22;4821308;29;20058;-81
2021/10/13 04:42:18;;;;;;;3.25;3.05;;;;;;;7.96;66.81;99765.59;4821776;29;20050;-81
2021/10/13 04:44:44;;;;;;;0.70;0.70;;;;;;;7.99;67.29;99770.66;4821320;29;20058;-81
2021/10/13 04:47:10;;;;;;;2.42;2.30;;;;;;;7.97;66.41;99766.44;4823000;29;20046;-80
2021/10/13 04:49:36;;;;;;;3.40;3.17;;;;;;;7.92;67.33;99768.44;4821608;29;20471;-81
2021/10/13 04:52:02;;;;;;;3.08;2.83;;;;;;;7.96;67.19;99781.19;4820979;29;20050;-79
2021/10/13 04:54:28;;;;;;;3.53;3.33;;;;;;;7.96;67.03;99773.41;4822199;29;20106;-81
2021/10/13 04:56:54;;;;;;;3.50;3.30;;;;;;;7.95;67.15;99784.69;4821982;29;20103;-81
2021/10/13 04:59:20;;;;;;;2.80;2.60;;;;;;;7.91;68.03;99771.94;4820742;29;20054;-80
2021/10/13 05:01:46;;;;;;;4.03;3.72;;;;;;;7.93;67.63;99770.94;4822480;29;20058;-80
2021/10/13 05:04:12;;;;;;;3.03;2.38;;;;;;;7.92;67.55;99769.25;4821077;29;20567;-80
2021/10/13 05:06:38;;;;;;;11.35;3.60;;;;;;;7.95;67.16;99770.88;4822302;29;20046;-80
2021/10/13 05:09:04;;;;;;;12.93;3.88;;;;;;;7.95;67.62;99776.09;4820774;29;20513;-81
2021/10/13 05:11:30;;;;;;;3.55;3.28;;;;;;;7.97;67.62;99767.28;4825554;29;20137;-80
2021/10/13 05:13:56;;;;;;;2.65;2.55;;;;;;;8.05;67.64;99770.38;4790297;29;20110;-80
2021/10/13 05:16:22;;;;;;;5.65;3.35;;;;;;;8.01;67.52;99776.66;4790757;29;20058;-81
2021/10/13 05:18:48;;;;;;;8.38;2.53;;;;;;;8.07;67.41;99752.13;4821673;29;20054;-79
2021/10/13 05:21:15;;;;;;;3.45;3.25;;;;;;;8.06;67.23;99761.66;4821732;29;20138;-80
2021/10/13 05:23:41;;;;;;;2.65;2.55;;;;;;;8.15;66.37;99771.63;4821628;29;20069;-81
2021/10/13 05:26:08;;;;;;;3.42;2.88;;;;;;;8.12;67.90;99782.19;4822897;29;20068;-83
2021/10/13 05:28:34;;;;;;;1.95;1.90;;;;;;;8.06;68.16;99782.47;4810406;29;20151;-83
2021/10/13 05:31:00;;;;;;;4.28;3.90;;;;;;;8.15;67.86;99782.03;4824447;29;20137;-83
2021/10/13 05:33:26;;;;;;;16.33;5.65;;;;;;;8.14;68.15;99782.97;4794403;29;20555;-83
2021/10/13 05:35:52;;;;;;;6.43;3.72;;;;;;;8.12;68.10;99770.94;4811786;29;20513;-82
2021/10/13 05:38:18;;;;;;;3.30;3.08;;;;;;;8.10;68.70;99777.97;4824144;29;20446;-82
2021/10/13 05:40:43;;;;;;;3.85;3.47;;;;;;;8.15;68.38;99770.78;4805372;29;20055;-82
2021/10/13 05:43:10;;;;;;;2.08;2.05;;;;;;;8.15;68.58;99782.03;4796487;29;20065;-78
2021/10/13 05:45:35;;;;;;;4.50;3.50;;;;;;;8.18;68.85;99775.88;4805818;29;20069;-77
2021/10/13 05:48:01;;;;;;;3.58;3.35;;;;;;;8.22;68.04;99774.78;4821558;29;20081;-79
2021/10/13 05:50:28;;;;;;;4.10;3.75;;;;;;;8.21;67.61;99768.75;4805488;29;20047;-77
2021/10/13 05:52:54;;;;;;;6.07;2.83;;;;;;;8.30;67.24;99770.97;4801557;29;20054;-79
2021/10/13 05:55:20;;;;;;;3.25;3.05;;;;;;;8.30;67.29;99768.38;4800449;29;20138;-78
2021/10/13 05:57:46;;;;;;;1.75;1.67;;;;;;;8.29;67.05;99773.63;4802080;29;20050;-77
2021/10/13 06:00:13;;;;;;;5.15;3.10;;;;;;;8.36;67.64;99772.44;4820140;29;20429;-78
2021/10/13 06:02:39;;;;;;;3.35;2.97;;;;;;;8.38;67.14;99774.97;4771111;29;20063;-79
2021/10/13 06:05:05;;;;;;;14.75;4.18;;;;;;;8.38;66.23;99784.44;4803639;29;20532;-81
2021/10/13 06:07:31;;;;;;;2.72;2.53;;;;;;;8.34;66.55;99782.91;4804127;29;20517;-81
2021/10/13 06:09:57;;;;;;;13.95;4.28;;;;;;;8.40;66.45;99773.97;4788546;29;20058;-83
2021/10/13 06:12:23;;;;;;;6.78;5.90;;;;;;;8.38;66.37;99779.25;4810954;29;20043;-79
2021/10/13 06:14:49;;;;;;;4.57;4.15;;;;;;;8.39;66.41;99790.50;4820299;29;20062;-78
2021/10/13 06:17:15;;;;;;;3.40;3.20;;;;;;;8.48;66.39;99791.81;4803597;29;20050;-81
2021/10/13 06:19:41;;;;;;;9.15;3.13;;;;;;;8.58;66.08;99790.47;4820407;29;20502;-80
2021/10/13 06:22:07;;;;;;;4.30;3.90;;;;;;;8.60;66.23;99781.69;4789530;29;20082;-81
2021/10/13 06:24:33;;;;;;;5.35;4.78;;;;;;;8.62;65.39;99777.25;4804018;29;20062;-80
2021/10/13 06:26:59;;;;;;;6.20;4.30;;;;;;;8.64;66.31;99774.56;4820396;29;20054;-79
2021/10/13 06:29:25;;;;;;;7.30;6.68;;;;;;;8.60;65.80;99773.03;4789242;29;20465;-79
2021/10/13 06:31:51;;;;;;;8.85;6.18;;;;;;;8.57;65.76;99765.38;4804116;29;20061;-79
2021/10/13 06:34:17;;;;;;;5.38;4.85;;;;;;;8.59;66.07;99771.34;4821751;29;20062;-81
2021/10/13 06:36:43;;;;;;;6.03;5.50;;;;;;;8.58;66.47;99780.91;4805806;29;20446;-80
2021/10/13 06:39:09;;;;;;;6.32;5.53;;;;;;;8.62;66.27;99773.78;4804881;29;20069;-79
2021/10/13 06:41:35;;;;;;;9.13;5.20;;;;;;;8.63;66.09;99773.72;4798649;29;20047;-78
2021/10/13 06:44:01;;;;;;;4.38;3.78;;;;;;;8.61;66.01;99751.28;4808687;29;20055;-81
2021/10/13 06:46:29;;;;;;;8.50;4.65;;;;;;;8.64;65.67;99748.53;4792100;29;20644;-80
2021/10/13 06:48:56;;;;;;;5.20;3.65;;;;;;;8.62;66.13;99739.97;4815541;29;20053;-79
2021/10/13 06:51:21;;;;;;;3.40;3.10;;;;;;;8.68;65.99;99739.66;4788898;29;20486;-77
2021/10/13 06:53:47;;;;;;;3.95;3.63;;;;;;;8.67;65.80;99738.00;4819879;29;20046;-75
2021/10/13 06:56:14;;;;;;;4.90;4.57;;;;;;;8.66;66.49;99742.34;4788426;29;20444;-76
2021/10/13 06:58:40;;;;;;;3.58;3.38;;;;;;;8.72;66.32;99747.25;4788631;29;20061;-77
2021/10/13 07:01:05;;;;;;;11.65;3.80;;;;;;;8.83;66.00;99744.13;4819885;29;20062;-76
2021/10/13 07:03:32;;;;;;;4.45;4.05;;;;;;;8.87;65.83;99743.03;4803370;29;20510;-77
2021/10/13 07:05:57;;;;;;;4.25;3.88;;;;;;;8.97;65.56;99744.28;4788417;29;20084;-78
2021/10/13 07:08:23;;;;;;;3.47;2.88;;;;;;;9.04;65.78;99748.25;4788553;29;20110;-78
2021/10/13 07:10:55;;;;;;;26.58;5.85;;;;;;;8.97;65.04;99746.88;4801555;29;20471;-76
2021/10/13 07:13:31;;;;;;;1.17;1.17;;;;;;;9.00;65.15;99757.13;4808052;29;20062;-80
2021/10/13 07:16:06;;;;;;;3.58;3.30;;;;;;;9.12;64.46;99761.75;4820049;29;20084;-80
2021/10/13 07:18:32;;;;;;;23.77;3.38;;;;;;;9.25;64.33;99752.41;4826246;29;20059;-79
2021/10/13 07:20:58;;;;;;;4.20;3.75;;;;;;;9.16;63.68;99773.66;4830372;29;20394;-80
2021/10/13 07:23:24;;;;;;;3.40;3.17;;;;;;;9.29;64.12;99777.34;4811082;29;20058;-80
2021/10/13 07:25:51;;;;;;;5.63;4.00;;;;;;;9.33;64.19;99768.44;4813839;29;20062;-79
2021/10/13 07:28:17;;;;;;;5.10;3.75;;;;;;;9.29;63.72;99764.31;4790316;29;20100;-78
2021/10/13 07:30:43;;;;;;;5.03;3.55;;;;;;;9.49;63.28;99755.47;4816334;29;20053;-79
2021/10/13 07:33:09;;;;;;;21.13;4.35;;;;;;;9.51;63.45;99768.44;4830909;29;20058;-79
2021/10/13 07:35:35;;;;;;;3.13;2.95;;;;;;;9.48;63.27;99760.78;4823262;29;20065;-77
2021/10/13 07:42:07;;;;;;;2.35;2.25;;;;;;;9.57;62.93;99768.97;4822958;29;20046;-80
2021/10/13 07:44:33;;;;;;;6.93;2.50;;;;;;;9.87;61.54;99758.69;4805536;29;20107;-82
2021/10/13 07:46:59;;;;;;;2.40;2.30;;;;;;;9.95;61.57;99764.31;4823760;29;20053;-80
2021/10/13 07:49:59;;;;;;;20.80;3.70;;;;;;;10.22;61.18;99767.22;4806377;29;20643;-80
2021/10/13 07:52:37;;;;;;;7.28;4.70;;;;;;;9.99;61.14;99754.56;4805874;29;20744;-84
2021/10/13 07:55:04;;;;;;;4.50;4.10;;;;;;;10.04;61.13;99758.63;4776497;29;20149;-80
2021/10/13 07:57:30;;;;;;;3.65;3.40;;;;;;;10.12;61.88;99761.66;4822646;29;20099;-79
2021/10/13 07:59:56;;;;;;;3.33;3.08;;;;;;;10.39;60.36;99749.72;4822019;29;20054;-80
2021/10/13 08:02:23;;;;;;;3.67;3.47;;;;;;;10.85;59.37;99749.72;4812112;29;20055;-79
2021/10/13 08:04:49;;;;;;;5.50;3.85;;;;;;;11.05;58.69;99753.81;4801119;29;20107;-77
2021/10/13 08:07:16;;;;;;;5.82;4.30;;;;;;;11.26;57.74;99757.75;4800224;29;20054;-74
2021/10/13 08:09:43;;;;;;;2.13;2.03;;;;;;;10.55;59.78;99747.09;4821945;29;20050;-79
2021/10/13 08:12:09;;;;;;;6.32;3.05;;;;;;;10.43;59.73;99740.81;4822033;29;20838;-77
2021/10/13 08:14:35;;;;;;;4.10;2.80;;;;;;;10.71;60.08;99754.91;4805847;29;20560;-75
2021/10/13 08:17:02;;;;;;;3.08;2.75;;;;;;;11.04;58.47;99752.97;4790719;29;20054;-77
2021/10/13 08:19:28;;;;;;;3.55;3.25;;;;;;;10.89;58.85;99748.63;4805618;29;20058;-77
2021/10/13 08:21:54;;;;;;;11.13;3.63;;;;;;;10.89;58.51;99753.84;4821840;29;20114;-77
2021/10/13 08:24:20;;;;;;;2.95;2.65;;;;;;;10.95;58.25;99749.13;4805368;29;20553;-76
2021/10/13 08:26:46;;;;;;;4.45;3.72;;;;;;;10.99;57.86;99741.94;4805270;29;20146;-76
2021/10/13 08:29:12;;;;;;;5.80;2.50;;;;;;;11.04;58.16;99737.28;4805569;29;20099;-76
2021/10/13 08:31:39;;;;;;;3.22;3.03;;;;;;;11.08;58.27;99730.13;4805035;29;20054;-78
2021/10/13 08:34:05;;;;;;;1.30;1.27;;;;;;;10.84;58.92;99729.75;4821478;29;20062;-76
2021/10/13 08:36:31;;;;;;;7.88;4.13;;;;;;;10.89;58.58;99709.47;4805466;29;20050;-76
2021/10/13 08:38:57;;;;;;;2.15;2.05;;;;;;;11.12;57.96;99708.94;4790430;29;20058;-75
2021/10/13 08:41:23;;;;;;;2.78;2.60;;;;;;;11.41;57.01;99708.03;4815380;29;20055;-76
2021/10/13 08:43:49;;;;;;;3.08;2.88;;;;;;;11.86;56.24;99714.03;4772964;29;20510;-77
2021/10/13 08:46:16;;;;;;;3.63;3.05;;;;;;;12.30;54.41;99711.22;4788506;29;20123;-76
2021/10/13 08:48:42;;;;;;;3.15;2.83;;;;;;;12.44;53.99;99719.84;4815651;29;20054;-79
2021/10/13 08:51:08;;;;;;;3.10;2.88;;;;;;;12.18;54.84;99723.28;4814573;29;20066;-78
2021/10/13 08:53:36;;;;;;;14.95;4.10;;;;;;;12.01;55.65;99719.13;4797950;29;20069;-79
2021/10/13 08:56:03;;;;;;;12.95;3.47;;;;;;;12.05;55.66;99725.00;4808882;29;20107;-79
2021/10/13 08:58:29;;;;;;;3.05;2.85;;;;;;;12.13;55.55;99730.63;4805796;29;20119;-78
2021/10/13 09:01:10;;;;;;;5.30;3.85;;;;;;;11.90;56.23;99733.81;4803421;29;20158;-78
2021/10/13 09:03:41;;;;;;;5.25;4.78;;;;;;;12.60;54.96;99713.63;4789695;29;20063;-76
2021/10/13 09:06:33;;;;;;;3.65;3.40;;;;;;;12.73;54.50;99714.50;4796541;29;20052;-76
2021/10/13 09:09:03;;;;;;;5.43;3.10;;;;;;;12.33;55.09;99717.09;4812017;29;20514;-75
2021/10/13 09:11:35;;;;;;;4.78;4.30;;;;;;;12.47;54.85;99703.09;4827933;29;20061;-78
2021/10/13 09:14:10;;;;;;;4.95;4.53;;;;;;;12.32;55.22;99704.94;4838618;29;20632;-77
2021/10/13 09:16:57;;;;;;;2.40;2.28;;;;;;;12.35;55.43;99696.88;4839363;29;20086;-77
2021/10/13 09:19:44;;;;;;;4.28;3.97;;;;;;;11.91;56.39;99704.13;4811173;29;20110;-75
2021/10/13 09:22:12;;;;;;;5.50;4.43;;;;;;;11.97;55.98;99698.50;4807528;29;20055;-76
2021/10/13 09:24:43;;;;;;;4.95;4.55;;;;;;;11.78;57.10;99700.59;4802444;29;20097;-78
2021/10/13 09:27:31;;;;;;;;;;;;;;;12.13;56.51;99707.06;4803037;29;20074;-77
2021/10/13 09:29:59;;;;;;;2.20;2.10;;;;;;;12.15;55.54;99699.09;4801608;29;20024;-78
2021/10/13 09:32:28;;;;;;;7.20;3.80;;;;;;;12.41;55.27;99713.97;4789187;29;20061;-78
2021/10/13 09:34:58;;;;;;;6.85;4.43;;;;;;;12.33;55.61;99711.88;4804557;29;20467;-78
2021/10/13 09:37:25;;;;;;;3.78;3.42;;;;;;;12.25;55.33;99719.34;4789854;29;20115;-77
2021/10/13 09:39:58;;;;;;;2.88;2.67;;;;;;;12.30;55.31;99717.28;4804606;29;20062;-77
2021/10/13 09:42:25;;;;;;;13.75;3.75;;;;;;;12.34;55.51;99708.28;4789899;29;20446;-77
2021/10/13 09:45:00;;;;;;;4.53;4.20;;;;;;;12.55;54.99;99716.53;4818228;29;20095;-78
2021/10/13 09:47:33;;;;;;;3.53;3.33;;;;;;;12.59;54.78;99714.56;4820134;29;20061;-79
2021/10/13 09:50:00;;;;;;;3.92;3.15;;;;;;;12.96;54.04;99700.69;4838172;29;20077;-79
2021/10/13 09:52:29;;;;;;;4.25;3.97;;;;;;;12.37;55.38;99692.38;4821194;29;20153;-78
2021/10/13 09:55:04;;;;;;;4.00;3.63;;;;;;;12.49;55.14;99707.31;4838373;29;20576;-77
2021/10/13 09:57:31;;;;;;;5.28;4.00;;;;;;;12.48;55.33;99713.47;4821317;29;20065;-76
2021/10/13 10:00:00;;;;;;;5.28;4.80;;;;;;;12.42;55.20;99711.28;4806103;29;20148;-77
2021/10/13 10:02:31;;;;;;;4.38;4.07;;;;;;;12.64;55.23;99710.69;4818393;29;21327;-76
2021/10/13 10:05:07;;;;;;;4.18;3.35;;;;;;;13.03;54.08;99720.31;4801504;29;20054;-76
2021/10/13 10:07:33;;;;;;;1.90;1.80;;;;;;;12.99;53.59;99708.34;4812240;29;20057;-81
2021/10/13 10:10:16;;;;;;;3.50;3.30;;;;;;;13.41;52.88;99723.84;4822222;29;20128;-79
2021/10/13 10:13:02;;;;;;;2.78;2.58;;;;;;;13.86;51.93;99718.97;4799954;29;20093;-78
2021/10/13 10:15:36;;;;;;;4.55;4.15;;;;;;;13.84;51.80;99720.88;4820457;29;20058;-77
2021/10/13 10:18:32;;;;;;;4.47;3.85;;;;;;;14.22;51.18;99726.84;4819965;29;20084;-77
2021/10/13 10:21:15;;;;;;;4.68;4.18;;;;;;;14.26;50.81;99728.31;4789318;29;20051;-78
2021/10/13 10:23:42;;;;;;;3.10;2.90;;;;;;;13.24;53.24;99726.78;4831026;29;20058;-77
2021/10/13 10:26:26;;;;;;;3.85;3.53;;;;;;;13.74;52.42;99725.09;4839221;29;20695;-79
2021/10/13 10:29:01;;;;;;;5.47;3.88;;;;;;;13.53;52.43;99717.75;4823823;29;20545;-78
2021/10/13 10:31:27;;;;;;;3.75;3.55;;;;;;;12.99;54.00;99724.06;4789016;29;20051;-78
2021/10/13 10:34:03;;;;;;;7.85;3.78;;;;;;;13.02;54.17;99732.56;4800654;29;20070;-79
2021/10/13 10:36:55;;;;;;;3.75;3.38;;;;;;;13.28;53.70;99716.94;4811003;29;20088;-81
2021/10/13 10:39:25;;;;;;;5.70;2.90;;;;;;;13.42;53.34;99720.25;4814621;29;20060;-77
2021/10/13 10:41:53;;;;;;;4.60;3.08;;;;;;;13.07;54.23;99703.44;4814597;29;20092;-78
2021/10/13 10:44:39;;;;;;;4.30;3.83;;;;;;;13.29;54.07;99724.66;4807698;29;20053;-80
2021/10/13 10:47:06;;;;;;;3.58;3.28;;;;;;;13.39;53.79;99730.97;4820602;29;20062;-79
2021/10/13 10:49:55;;;;;;;4.68;4.35;;;;;;;13.38;53.61;99726.66;4822021;29;20053;-79
2021/10/13 10:52:23;;;;;;;3.00;2.80;;;;;;;13.44;53.25;99738.53;4837181;29;20054;-78
2021/10/13 10:55:08;;;;;;;3.90;3.60;;;;;;;13.46;53.66;99740.09;4841513;29;20066;-78
2021/10/13 10:57:39;;;;;;;3.97;3.65;;;;;;;13.23;54.02;99740.81;4840687;29;20060;-77
2021/10/13 11:00:08;;;;;;;3.63;3.25;;;;;;;13.26;53.65;99740.59;4840855;29;20623;-77
2021/10/13 11:02:41;;;;;;;1.00;1.00;;;;;;;13.14;54.13;99741.44;4824318;29;20097;-77
2021/10/13 11:05:16;;;;;;;3.05;2.92;;;;;;;13.27;53.93;99744.06;4824838;29;20062;-77
2021/10/13 11:07:47;;;;;;;4.68;4.38;;;;;;;13.65;52.94;99747.53;4823949;29;20062;-77
2021/10/13 11:10:15;;;;;;;4.20;3.80;;;;;;;13.77;52.43;99740.63;4810153;29;20058;-78
2021/10/13 11:12:50;;;;;;;7.30;3.97;;;;;;;13.33;53.10;99731.38;4843887;29;20053;-78
2021/10/13 11:15:29;;;;;;;4.45;4.10;;;;;;;13.03;53.34;99738.66;4828036;29;20065;-81
2021/10/13 11:17:56;;;;;;;2.05;1.92;;;;;;;13.10;53.58;99741.75;4845303;29;20057;-79
2021/10/13 11:20:25;;;;;;;5.32;4.85;;;;;;;13.19;53.13;99736.72;4812988;29;20130;-79
2021/10/13 11:23:01;;;;;;;3.03;2.83;;;;;;;13.41;52.70;99742.22;4859372;29;20076;-79
2021/10/13 11:25:27;;;;;;;2.28;2.17;;;;;;;13.38;52.80;99713.53;4823898;29;20057;-79
2021/10/13 11:28:04;;;;;;;4.35;3.75;;;;;;;13.82;51.92;99722.75;4857482;29;20057;-79
2021/10/13 11:30:38;;;;;;;2.85;2.40;;;;;;;13.69;51.93;99722.78;4858949;29;20057;-79
2021/10/13 11:33:06;;;;;;;6.90;3.88;;;;;;;13.54;52.49;99729.94;4843523;29;20057;-80
2021/10/13 11:35:32;;;;;;;1.77;1.67;;;;;;;13.44;52.92;99723.63;4827393;29;20546;-78
2021/10/13 11:37:59;;;;;;;10.15;5.57;;;;;;;13.33;53.24;99726.16;4858624;29;20061;-79
2021/10/13 11:40:26;;;;;;;4.07;3.75;;;;;;;13.25;52.99;99725.81;4851452;29;20141;-81
2021/10/13 11:42:59;;;;;;;2.78;2.53;;;;;;;13.01;53.88;99719.59;4837729;29;20058;-80
2021/10/13 11:45:25;;;;;;;3.60;3.22;;;;;;;13.09;53.40;99714.69;4860446;29;20077;-81
2021/10/13 11:47:53;;;;;;;7.57;5.13;;;;;;;13.25;53.24;99715.31;4837193;29;20088;-80
2021/10/13 11:50:20;;;;;;;4.38;3.53;;;;;;;13.37;52.79;99722.38;4850820;29;20060;-80
2021/10/13 11:52:55;;;;;;;2.65;2.45;;;;;;;13.55;52.27;99715.00;4863686;29;20045;-80
2021/10/13 11:55:26;;;;;;;6.55;3.88;;;;;;;13.05;52.72;99706.16;4872067;29;20656;-82
2021/10/13 11:57:54;;;;;;;3.10;2.80;;;;;;;13.42;52.27;99722.03;4868216;29;20086;-78
2021/10/13 12:00:25;;;;;;;4.10;3.80;;;;;;;13.43;52.19;99724.56;4859054;29;20048;-78
2021/10/13 12:03:14;;;;;;;3.28;3.08;;;;;;;13.35;51.98;99734.72;4841068;29;20061;-78